DRK402 VNKT-VQPR
Flight info
| Callsign | DRK402 |
|---|---|
| Flight time | 0h 39m |
| Altitude | 35000 |
| Route | IGRIS1E KIMTI G348 SUBSU DCT TAKTI DCT PR798 DCT PR777 DCT PR848 DCT PR746 DCT PR714 DCT PR712 DCT PR710 DCT PR706 DCT PR708 DCT PR704 |
| Aircraft | A319/M-SDE3FGHIRWY/LB1 |
Departure
| Time | 2026-05-07 19:27 |
|---|---|
| Airport | Tribhuvan International Airport (VNKT) |
Arrival
| Time | 2026-05-07 20:06 |
|---|---|
| Airport | Paro International Airport (VQPR) |
| Time | Latitude | Longitude | Altitude | Speed | Heading |
|---|---|---|---|---|---|
| 2026-05-07 17:19 | 27.69818 | 85.35754 | 4398 ft | 0 kts | 291° |
| 2026-05-07 19:17 | 27.69818 | 85.35755 | 4398 ft | 1 kts | 291° |
| 2026-05-07 19:17 | 27.69809 | 85.35781 | 4398 ft | 4 kts | 291° |
| 2026-05-07 19:18 | 27.69799 | 85.35809 | 4398 ft | 4 kts | 288° |
| 2026-05-07 19:18 | 27.69794 | 85.35838 | 4397 ft | 4 kts | 262° |
| 2026-05-07 19:18 | 27.69804 | 85.35860 | 4397 ft | 3 kts | 205° |
| 2026-05-07 19:18 | 27.69806 | 85.35862 | 4397 ft | 0 kts | 202° |
| 2026-05-07 19:21 | 27.69796 | 85.35857 | 4397 ft | 3 kts | 202° |
| 2026-05-07 19:22 | 27.69764 | 85.35843 | 4397 ft | 9 kts | 201° |
| 2026-05-07 19:22 | 27.69702 | 85.35815 | 4398 ft | 10 kts | 201° |
| 2026-05-07 19:22 | 27.69635 | 85.35785 | 4398 ft | 11 kts | 202° |
| 2026-05-07 19:22 | 27.69560 | 85.35751 | 4398 ft | 12 kts | 202° |
| 2026-05-07 19:23 | 27.69473 | 85.35712 | 4396 ft | 15 kts | 202° |
| 2026-05-07 19:23 | 27.69368 | 85.35664 | 4394 ft | 17 kts | 202° |
| 2026-05-07 19:23 | 27.69253 | 85.35611 | 4392 ft | 19 kts | 202° |
| 2026-05-07 19:23 | 27.69138 | 85.35558 | 4388 ft | 16 kts | 202° |
| 2026-05-07 19:24 | 27.69101 | 85.35552 | 4388 ft | 0 kts | 169° |
| 2026-05-07 19:24 | 27.69096 | 85.35554 | 4389 ft | 2 kts | 161° |
| 2026-05-07 19:24 | 27.69072 | 85.35589 | 4389 ft | 8 kts | 121° |
| 2026-05-07 19:24 | 27.69036 | 85.35624 | 4391 ft | 8 kts | 171° |
| 2026-05-07 19:25 | 27.68951 | 85.35591 | 4392 ft | 15 kts | 201° |
| 2026-05-07 19:25 | 27.68837 | 85.35540 | 4391 ft | 19 kts | 202° |
| 2026-05-07 19:25 | 27.68712 | 85.35483 | 4390 ft | 21 kts | 202° |
| 2026-05-07 19:25 | 27.68581 | 85.35424 | 4394 ft | 20 kts | 202° |
| 2026-05-07 19:26 | 27.68467 | 85.35353 | 4396 ft | 19 kts | 236° |
| 2026-05-07 19:26 | 27.68421 | 85.35345 | 4397 ft | 10 kts | 58° |
| 2026-05-07 19:26 | 27.68490 | 85.35381 | 4396 ft | 12 kts | 22° |
| 2026-05-07 19:26 | 27.68630 | 85.35443 | 4393 ft | 49 kts | 20° |
| 2026-05-07 19:27 | 27.69192 | 85.35701 | 4394 ft | 121 kts | 22° |
| 2026-05-07 19:27 | 27.70143 | 85.36139 | 4469 ft | 166 kts | 22° |
| 2026-05-07 19:27 | 27.71229 | 85.36634 | 5113 ft | 169 kts | 22° |
| 2026-05-07 19:27 | 27.72321 | 85.37125 | 5739 ft | 174 kts | 25° |
| 2026-05-07 19:28 | 27.73311 | 85.38050 | 6051 ft | 198 kts | 52° |
| 2026-05-07 19:28 | 27.73934 | 85.39508 | 6436 ft | 219 kts | 75° |
| 2026-05-07 19:28 | 27.74039 | 85.41305 | 6790 ft | 240 kts | 93° |
| 2026-05-07 19:28 | 27.73935 | 85.43237 | 7413 ft | 250 kts | 98° |
| 2026-05-07 19:29 | 27.73335 | 85.45090 | 8227 ft | 257 kts | 122° |
| 2026-05-07 19:29 | 27.72088 | 85.46501 | 9062 ft | 260 kts | 148° |
| 2026-05-07 19:29 | 27.70410 | 85.47259 | 9926 ft | 263 kts | 162° |
| 2026-05-07 19:29 | 27.68619 | 85.47994 | 10347 ft | 285 kts | 158° |
| 2026-05-07 19:30 | 27.66783 | 85.49058 | 10691 ft | 310 kts | 146° |
| 2026-05-07 19:30 | 27.65089 | 85.50705 | 11069 ft | 333 kts | 132° |
| 2026-05-07 19:30 | 27.63701 | 85.52843 | 11760 ft | 343 kts | 120° |
| 2026-05-07 19:30 | 27.62737 | 85.55323 | 12570 ft | 349 kts | 108° |
| 2026-05-07 19:31 | 27.62029 | 85.57961 | 13415 ft | 354 kts | 107° |
| 2026-05-07 19:31 | 27.61313 | 85.60633 | 14198 ft | 359 kts | 107° |
| 2026-05-07 19:31 | 27.60585 | 85.63341 | 14915 ft | 363 kts | 107° |
| 2026-05-07 19:31 | 27.59847 | 85.66087 | 15615 ft | 369 kts | 107° |
| 2026-05-07 19:32 | 27.59067 | 85.68865 | 16307 ft | 374 kts | 111° |
| 2026-05-07 19:32 | 27.58013 | 85.71565 | 17010 ft | 379 kts | 117° |
| 2026-05-07 19:32 | 27.56833 | 85.74244 | 17702 ft | 385 kts | 117° |
| 2026-05-07 19:32 | 27.55651 | 85.76927 | 18390 ft | 390 kts | 117° |
| 2026-05-07 19:33 | 27.54439 | 85.79681 | 19006 ft | 395 kts | 118° |
| 2026-05-07 19:33 | 27.53213 | 85.82464 | 19632 ft | 399 kts | 118° |
| 2026-05-07 19:33 | 27.52097 | 85.85341 | 20270 ft | 404 kts | 111° |
| 2026-05-07 19:33 | 27.51340 | 85.88405 | 20914 ft | 409 kts | 102° |
| 2026-05-07 19:34 | 27.50985 | 85.91606 | 21554 ft | 414 kts | 94° |
| 2026-05-07 19:34 | 27.50880 | 85.94866 | 22178 ft | 418 kts | 93° |
| 2026-05-07 19:34 | 27.50772 | 85.98157 | 22794 ft | 422 kts | 94° |
| 2026-05-07 19:34 | 27.50652 | 86.01479 | 23366 ft | 426 kts | 94° |
| 2026-05-07 19:35 | 27.50525 | 86.04832 | 23911 ft | 430 kts | 94° |
| 2026-05-07 19:35 | 27.50392 | 86.08218 | 24407 ft | 434 kts | 94° |
| 2026-05-07 19:35 | 27.50258 | 86.11620 | 24895 ft | 437 kts | 94° |
| 2026-05-07 19:35 | 27.50122 | 86.15053 | 25378 ft | 440 kts | 94° |
| 2026-05-07 19:36 | 27.49984 | 86.18506 | 25865 ft | 442 kts | 95° |
| 2026-05-07 19:36 | 27.49847 | 86.21974 | 26322 ft | 446 kts | 95° |
| 2026-05-07 19:36 | 27.49703 | 86.25469 | 26787 ft | 449 kts | 96° |
| 2026-05-07 19:36 | 27.49250 | 86.28954 | 27249 ft | 449 kts | 105° |
| 2026-05-07 19:37 | 27.48598 | 86.32329 | 27715 ft | 452 kts | 105° |
| 2026-05-07 19:37 | 27.47927 | 86.35824 | 28200 ft | 455 kts | 105° |
| 2026-05-07 19:37 | 27.47259 | 86.39317 | 28628 ft | 458 kts | 105° |
| 2026-05-07 19:37 | 27.46590 | 86.42830 | 29079 ft | 460 kts | 105° |
| 2026-05-07 19:38 | 27.45914 | 86.46370 | 29534 ft | 463 kts | 105° |
| 2026-05-07 19:38 | 27.45233 | 86.49926 | 29970 ft | 466 kts | 105° |
| 2026-05-07 19:38 | 27.44543 | 86.53506 | 30346 ft | 469 kts | 105° |
| 2026-05-07 19:38 | 27.43847 | 86.57105 | 30636 ft | 473 kts | 105° |
| 2026-05-07 19:39 | 27.43141 | 86.60742 | 30903 ft | 477 kts | 105° |
| 2026-05-07 19:39 | 27.42428 | 86.64408 | 31164 ft | 483 kts | 105° |
| 2026-05-07 19:39 | 27.41707 | 86.68111 | 31371 ft | 487 kts | 105° |
| 2026-05-07 19:39 | 27.41225 | 86.70592 | 31548 ft | 490 kts | 105° |
| 2026-05-07 19:40 | 27.40250 | 86.75617 | 32025 ft | 492 kts | 105° |
| 2026-05-07 19:40 | 27.39516 | 86.79392 | 32411 ft | 494 kts | 105° |
| 2026-05-07 19:40 | 27.38781 | 86.83166 | 32818 ft | 495 kts | 105° |
| 2026-05-07 19:40 | 27.38040 | 86.86962 | 33206 ft | 497 kts | 105° |
| 2026-05-07 19:41 | 27.37297 | 86.90764 | 33619 ft | 499 kts | 105° |
| 2026-05-07 19:41 | 27.36550 | 86.94585 | 34011 ft | 501 kts | 105° |
| 2026-05-07 19:41 | 27.35812 | 86.98358 | 34342 ft | 502 kts | 105° |
| 2026-05-07 19:41 | 27.35049 | 87.02248 | 34758 ft | 502 kts | 106° |
| 2026-05-07 19:42 | 27.34292 | 87.06084 | 34995 ft | 504 kts | 106° |
| 2026-05-07 19:42 | 27.33541 | 87.09879 | 35057 ft | 502 kts | 106° |
| 2026-05-07 19:42 | 27.31943 | 87.17468 | 35042 ft | 495 kts | 112° |
| 2026-05-07 19:43 | 27.28998 | 87.24341 | 35044 ft | 484 kts | 127° |
| 2026-05-07 19:43 | 27.25443 | 87.30776 | 35034 ft | 484 kts | 127° |
| 2026-05-07 19:44 | 27.21897 | 87.37207 | 35035 ft | 485 kts | 127° |
| 2026-05-07 19:44 | 27.18336 | 87.43654 | 35024 ft | 486 kts | 127° |
| 2026-05-07 19:45 | 27.14777 | 87.50100 | 34994 ft | 485 kts | 128° |
| 2026-05-07 19:45 | 27.11211 | 87.56550 | 35009 ft | 487 kts | 128° |
| 2026-05-07 19:46 | 27.07633 | 87.63002 | 34980 ft | 485 kts | 128° |
| 2026-05-07 19:46 | 27.04059 | 87.69428 | 34977 ft | 485 kts | 128° |
| 2026-05-07 19:47 | 27.00482 | 87.75855 | 34969 ft | 486 kts | 129° |
| 2026-05-07 19:47 | 26.96920 | 87.82244 | 34943 ft | 486 kts | 129° |
| 2026-05-07 19:48 | 26.93325 | 87.88684 | 34937 ft | 487 kts | 129° |
| 2026-05-07 19:48 | 26.89738 | 87.95121 | 34939 ft | 487 kts | 129° |
| 2026-05-07 19:49 | 26.86134 | 88.01568 | 34934 ft | 488 kts | 129° |
| 2026-05-07 19:49 | 26.83129 | 88.06925 | 34887 ft | 488 kts | 129° |
| 2026-05-07 19:50 | 26.79504 | 88.13367 | 34899 ft | 490 kts | 130° |
| 2026-05-07 19:50 | 26.75866 | 88.19842 | 34905 ft | 491 kts | 130° |
| 2026-05-07 19:51 | 26.72674 | 88.26666 | 34683 ft | 507 kts | 113° |
| 2026-05-07 19:51 | 26.71944 | 88.30545 | 34318 ft | 515 kts | 100° |
| 2026-05-07 19:51 | 26.71925 | 88.34587 | 33531 ft | 525 kts | 86° |
| 2026-05-07 19:52 | 26.72700 | 88.38583 | 32858 ft | 527 kts | 72° |
| 2026-05-07 19:52 | 26.74187 | 88.42322 | 32181 ft | 526 kts | 59° |
| 2026-05-07 19:52 | 26.76083 | 88.45809 | 31491 ft | 523 kts | 58° |
| 2026-05-07 19:52 | 26.77978 | 88.49270 | 30806 ft | 521 kts | 58° |
| 2026-05-07 19:53 | 26.79862 | 88.52717 | 30159 ft | 517 kts | 58° |
| 2026-05-07 19:53 | 26.81700 | 88.56083 | 29697 ft | 508 kts | 58° |
| 2026-05-07 19:53 | 26.83531 | 88.59432 | 29164 ft | 500 kts | 58° |
| 2026-05-07 19:53 | 26.85336 | 88.62735 | 28582 ft | 493 kts | 58° |
| 2026-05-07 19:54 | 26.87110 | 88.65992 | 28052 ft | 486 kts | 58° |
| 2026-05-07 19:54 | 26.88862 | 88.69211 | 27492 ft | 480 kts | 58° |
| 2026-05-07 19:54 | 26.90590 | 88.72385 | 26942 ft | 474 kts | 58° |
| 2026-05-07 19:54 | 26.92300 | 88.75526 | 26411 ft | 468 kts | 58° |
| 2026-05-07 19:55 | 26.93981 | 88.78621 | 25893 ft | 463 kts | 58° |
| 2026-05-07 19:55 | 26.95649 | 88.81694 | 25374 ft | 458 kts | 58° |
| 2026-05-07 19:55 | 26.97155 | 88.84810 | 24865 ft | 453 kts | 66° |
| 2026-05-07 19:55 | 26.98188 | 88.88119 | 24362 ft | 448 kts | 76° |
| 2026-05-07 19:56 | 26.98730 | 88.91486 | 23915 ft | 443 kts | 84° |
| 2026-05-07 19:56 | 26.99086 | 88.94900 | 23426 ft | 440 kts | 84° |
| 2026-05-07 19:56 | 26.99444 | 88.98292 | 22849 ft | 437 kts | 84° |
| 2026-05-07 19:56 | 26.99803 | 89.01667 | 22283 ft | 435 kts | 84° |
| 2026-05-07 19:57 | 27.00163 | 89.05041 | 21684 ft | 435 kts | 84° |
| 2026-05-07 19:57 | 27.00518 | 89.08407 | 21113 ft | 433 kts | 84° |
| 2026-05-07 19:57 | 27.00869 | 89.11753 | 20498 ft | 430 kts | 84° |
| 2026-05-07 19:57 | 27.01215 | 89.15068 | 19868 ft | 427 kts | 84° |
| 2026-05-07 19:58 | 27.01557 | 89.18369 | 19270 ft | 423 kts | 84° |
| 2026-05-07 19:58 | 27.01896 | 89.21634 | 18747 ft | 418 kts | 83° |
| 2026-05-07 19:58 | 27.02230 | 89.24851 | 18251 ft | 414 kts | 84° |
| 2026-05-07 19:58 | 27.02565 | 89.28063 | 17531 ft | 413 kts | 84° |
| 2026-05-07 19:59 | 27.02889 | 89.31179 | 17257 ft | 399 kts | 84° |
| 2026-05-07 19:59 | 27.03203 | 89.34236 | 16786 ft | 392 kts | 84° |
| 2026-05-07 19:59 | 27.03509 | 89.37255 | 16286 ft | 387 kts | 84° |
| 2026-05-07 19:59 | 27.03812 | 89.40227 | 15814 ft | 381 kts | 83° |
| 2026-05-07 20:00 | 27.04114 | 89.43166 | 15330 ft | 376 kts | 83° |
| 2026-05-07 20:00 | 27.04540 | 89.46042 | 14852 ft | 371 kts | 74° |
| 2026-05-07 20:00 | 27.05496 | 89.48702 | 14385 ft | 366 kts | 60° |
| 2026-05-07 20:00 | 27.06923 | 89.51050 | 13627 ft | 367 kts | 49° |
| 2026-05-07 20:01 | 27.08897 | 89.52783 | 13100 ft | 356 kts | 22° |
| 2026-05-07 20:01 | 27.11253 | 89.53322 | 12702 ft | 340 kts | 355° |
| 2026-05-07 20:01 | 27.13551 | 89.52939 | 12273 ft | 329 kts | 348° |
| 2026-05-07 20:01 | 27.15774 | 89.52487 | 11833 ft | 320 kts | 348° |
| 2026-05-07 20:02 | 27.17933 | 89.52088 | 11407 ft | 310 kts | 350° |
| 2026-05-07 20:02 | 27.20047 | 89.51792 | 10979 ft | 302 kts | 356° |
| 2026-05-07 20:02 | 27.22120 | 89.51934 | 10599 ft | 297 kts | 9° |
| 2026-05-07 20:02 | 27.24130 | 89.52371 | 10250 ft | 290 kts | 11° |
| 2026-05-07 20:03 | 27.26048 | 89.52792 | 10166 ft | 271 kts | 9° |
| 2026-05-07 20:03 | 27.27866 | 89.52915 | 10046 ft | 254 kts | 2° |
| 2026-05-07 20:03 | 27.29571 | 89.53126 | 9797 ft | 249 kts | 8° |
| 2026-05-07 20:03 | 27.31283 | 89.53338 | 9359 ft | 242 kts | 352° |
| 2026-05-07 20:04 | 27.32740 | 89.52552 | 9353 ft | 240 kts | 308° |
| 2026-05-07 20:04 | 27.33232 | 89.50800 | 9148 ft | 241 kts | 265° |
| 2026-05-07 20:04 | 27.33154 | 89.48949 | 8783 ft | 227 kts | 279° |
| 2026-05-07 20:04 | 27.33826 | 89.47486 | 8572 ft | 200 kts | 312° |
| 2026-05-07 20:05 | 27.34884 | 89.46625 | 8306 ft | 177 kts | 336° |
| 2026-05-07 20:05 | 27.35978 | 89.46284 | 8250 ft | 153 kts | 343° |
| 2026-05-07 20:05 | 27.36926 | 89.45790 | 8140 ft | 152 kts | 329° |
| 2026-05-07 20:05 | 27.37691 | 89.44995 | 8064 ft | 147 kts | 304° |
| 2026-05-07 20:06 | 27.38153 | 89.43975 | 7672 ft | 146 kts | 306° |
| 2026-05-07 20:06 | 27.38984 | 89.43314 | 7447 ft | 148 kts | 331° |
| 2026-05-07 20:06 | 27.39831 | 89.42777 | 7318 ft | 125 kts | 330° |
| 2026-05-07 20:06 | 27.40389 | 89.42427 | 7314 ft | 43 kts | 331° |
| 2026-05-07 20:07 | 27.40590 | 89.42288 | 7316 ft | 19 kts | 293° |
| 2026-05-07 20:07 | 27.40582 | 89.42195 | 7313 ft | 9 kts | 264° |
| 2026-05-07 20:07 | 27.40567 | 89.42151 | 7312 ft | 4 kts | 233° |
| 2026-05-07 20:07 | 27.40561 | 89.42141 | 7311 ft | 0 kts | 236° |